General Mariano Escobedo International Airport
MMMY : now visible

Airfield :











YOU CAN JOIN US ON...

 
LOGIN :

Register | Disclaimer

   EN    FR    IT 

 









Legend :    VFR   Marginal VFR   IFR   Intensive IFR   Very Intensive IFR
Visi :
Ceiling :
>= 8 km
>= 3000ft
5 to 8 km
1000 to 3000 ft
1500m to 5 km
500 to 1000 ft
800 to 1500m
200 to 500 ft
< 800m
< 200 ft
Symbols :   Thunderstorms  Fog  Heavy snow  Heavy precipitations  Wind > 20 kt






- Airport Elevation : 1278 ft
- IATA code : MTY


MMMY - General Mariano Escobedo International

METAR N/A
TAF TAF MMMY
Valid from the 26 at 00:00 until the 27 at 06:00 UTC


252230Z 2600/2706 07008KT P6SM BKN080 TX28/2622Z TN16/2613Z
BECMG 2602/2603 32005KT BKN040 BKN250
FM261200 00000KT 6SM HZ SCT040 BKN250
FM261500 12006KT 6SM HZ BKN250
BECMG 2620/2621 12012KT
FM270200 12006KT P6SM BKN250
MMFR FIR / North America



MET'MAP, your aeronautical weather chart ! - Copyright ORBIFLY December 2007 - Disclaimer

ORBIFLY MET'MAP TEAM :

Programming & Development : Alexandra Zaïnal
Concept & original design : Baudouin d'Aumeries
Assistance for programming : Marc-Olivier Méhu
Technical & hardware support : Manuel Goepfert

Contact : metmap@orbifly.com




SOURCES & CREDITS :

   NOAA       Earth
Advisory